Last 7 Days

Abernathy 1 (AB1)

Hourly Data | America/Los_Angeles
as of 4/23/19 5:42 PM PDT
Date & Time Temp (°F) RH (%) Dew Pt (°F) Wind Spd (mph) Wind Dir (°) Wind Gust (mph) Wind Gst Dir (°) Latest Rain (In) Solar Rad Tot Hr (Cal/cm2) Daily Rain (In) Daily Min Temp (°F) Daily Max Temp (°F)
4/23/19 - 1700 89.3 35 57.9 5.5 SW | 235 10.5 SW | 233 0.00 44 0.00 51.1 90.9
4/23/19 - 1600 89.9 34 58.2 4.7 WSW | 238 10.1 WSW | 243 0.00 54 0.00 51.1 90.9
4/23/19 - 1500 89.1 34 56.8 2.7 ESE | 120 11.0 ENE | 60 0.00 62 0.00 51.1 90.6
4/23/19 - 1400 88.6 34 56.3 4.1 NE | 47 12.6 E | 83 0.00 66 0.00 51.1 90.2
4/23/19 - 1300 86.3 36 56.6 3.2 SW | 227 7.8 NNW | 336 0.00 66 0.00 51.1 88.7
4/23/19 - 1200 82.8 42 57.1 2.7 S | 175 6.9 SSE | 160 0.00 60 0.00 51.1 85.0
4/23/19 - 1100 78.3 48 57.0 3.1 S | 176 6.3 SW | 220 0.00 51 0.00 51.1 80.3
4/23/19 - 1000 74.3 53 56.1 2.2 SSE | 165 5.6 SE | 130 0.00 38 0.00 51.1 77.2
4/23/19 - 0900 67.1 67 55.9 1.1 NNE | 30 3.8 N | 354 0.00 26 0.00 51.1 72.7
4/23/19 - 0800 57.9 84 53.1 0.8 NNW | 343 3.4 NNW | 332 0.00 13 0.00 51.1 72.7
4/23/19 - 0700 52.2 90 49.4 0.5 N | 349 3.9 NW | 317 0.00 2 0.00 51.1 72.7
4/23/19 - 0600 53.0 88 49.7 1.0 N | 7 4.4 NNW | 336 0.00 0 0.00 51.7 72.7
4/23/19 - 0500 56.1 83 51.2 0.9 NNW | 337 4.8 NW | 315 0.00 0 0.00 53.5 72.7
4/23/19 - 0400 59.7 76 52.3 2.7 ESE | 123 7.4 ESE | 120 0.00 0 0.00 58.5 72.7
4/23/19 - 0300 62.0 65 50.2 0.9 SE | 146 3.8 SE | 129 0.00 0 0.00 58.5 72.7
4/23/19 - 0200 67.8 41 43.4 1.9 NNE | 27 4.8 NNE | 29 0.00 0 0.00 63.0 72.7
4/23/19 - 0100 65.6 48 45.0 1.3 S | 178 3.8 SSW | 195 0.00 0 0.00 63.0 72.7
4/23/19 - 0000 65.8 42 41.8 2.4 NNW | 329 8.1 NNW | 333 0.00 0 0.00 45.4 89.4
4/22/19 - 2300 64.0 47 43.1 1.8 W | 279 4.1 W | 268 0.00 0 0.00 45.4 89.4
4/22/19 - 2200 66.0 48 45.7 0.7 W | 260 3.9 WNW | 299 0.00 0 0.00 45.4 89.4
4/22/19 - 2100 69.3 42 45.0 2.2 WSW | 237 5.8 SSW | 211 0.00 0 0.00 45.4 89.4
4/22/19 - 2000 76.6 35 46.9 3.8 SW | 214 7.4 SSW | 209 0.00 3 0.00 45.4 89.4
4/22/19 - 1900 85.1 20 39.1 2.5 NW | 316 7.3 NNW | 337 0.00 13 0.00 45.4 89.4
4/22/19 - 1800 87.0 17 36.8 5.2 N | 350 10.1 N | 0 0.00 31 0.00 45.4 89.4
4/22/19 - 1700 88.4 14 32.7 6.2 NNW | 340 12.3 NW | 319 0.00 45 0.00 45.4 89.4
4/22/19 - 1600 88.4 15 35.2 6.2 NW | 319 15.0 WNW | 292 0.00 57 0.00 45.4 89.4
4/22/19 - 1500 87.6 16 35.7 7.7 NW | 319 13.6 WNW | 297 0.00 65 0.00 45.4 88.3
4/22/19 - 1400 86.3 19 39.5 6.0 NW | 324 13.0 NW | 319 0.00 69 0.00 45.4 88.1
4/22/19 - 1300 84.1 22 40.9 7.5 NW | 323 14.0 NNW | 330 0.00 68 0.00 45.4 85.3
4/22/19 - 1200 81.8 25 42.1 6.3 NNW | 331 12.3 NNW | 336 0.00 63 0.00 45.4 83.9
4/22/19 - 1100 79.1 30 44.6 4.5 NW | 325 13.0 NW | 319 0.00 54 0.00 45.4 80.5
4/22/19 - 1000 75.1 32 43.1 4.2 NNW | 327 9.3 NNW | 334 0.00 42 0.00 45.4 77.4
4/22/19 - 0900 69.3 42 45.0 4.5 NNW | 333 9.8 NW | 318 0.00 28 0.00 45.4 72.8
4/22/19 - 0800 59.9 63 47.2 1.4 SW | 223 4.4 NNW | 338 0.00 13 0.00 45.4 65.2
4/22/19 - 0700 52.1 76 44.7 0.8 NW | 320 3.1 N | 5 0.00 1 0.00 45.4 56.2
4/22/19 - 0600 46.8 89 43.6 0.8 WNW | 287 3.3 WNW | 290 0.00 0 0.00 45.4 56.2
4/22/19 - 0500 49.2 84 44.5 0.5 NNE | 29 2.9 NE | 34 0.00 0 0.00 47.0 56.2
4/22/19 - 0400 53.1 77 46.0 2.0 WSW | 254 5.1 SW | 233 0.00 0 0.00 51.4 56.2
4/22/19 - 0300 54.1 76 46.7 3.4 WSW | 245 6.8 SW | 222 0.00 0 0.00 53.2 56.2
4/22/19 - 0200 55.0 74 47.0 4.8 SW | 227 8.6 SW | 235 0.00 0 0.00 54.1 56.2
4/22/19 - 0100 55.0 76 47.8 5.6 SW | 236 8.3 WSW | 242 0.00 0 0.00 54.4 55.7
4/22/19 - 0000 56.4 73 47.9 5.0 WSW | 239 8.1 SW | 233 0.00 0 0.00 41.9 75.3
4/21/19 - 2300 56.6 73 47.9 5.4 WSW | 238 10.3 SW | 234 0.00 0 0.00 41.9 75.3
4/21/19 - 2200 59.0 65 47.3 6.1 SSW | 211 10.6 SW | 229 0.00 0 0.00 41.9 75.3
4/21/19 - 2100 60.7 61 47.0 5.8 SW | 224 11.0 SW | 220 0.00 0 0.00 41.9 75.3
4/21/19 - 2000 64.6 55 47.9 6.8 WSW | 241 13.2 SW | 215 0.00 3 0.00 41.9 75.3
4/21/19 - 1900 69.2 50 49.9 9.2 WSW | 248 14.8 WSW | 247 0.00 15 0.00 41.9 75.3
4/21/19 - 1800 71.9 48 51.3 10.3 WSW | 242 15.2 WSW | 238 0.00 30 0.00 41.9 75.3
4/21/19 - 1700 73.3 48 52.2 10.6 WSW | 243 15.8 WSW | 246 0.00 44 0.00 41.9 75.3
4/21/19 - 1600 73.9 48 52.8 10.1 SW | 236 16.2 SSW | 204 0.00 55 0.00 41.9 75.3
4/21/19 - 1500 74.5 47 53.2 9.8 WSW | 239 18.0 SW | 233 0.00 63 0.00 41.9 75.3
4/21/19 - 1400 73.1 49 52.8 8.6 SW | 230 13.6 SSW | 213 0.00 67 0.00 41.9 74.7
4/21/19 - 1300 71.4 49 51.3 6.3 SW | 229 11.3 WSW | 247 0.00 67 0.00 41.9 72.8
4/21/19 - 1200 68.0 53 50.2 5.2 SSW | 212 10.1 SSW | 194 0.00 62 0.00 41.9 69.9
4/21/19 - 1100 65.3 56 49.2 4.5 SW | 224 9.0 W | 276 0.00 53 0.00 41.9 67.4
4/21/19 - 1000 62.0 62 49.1 4.4 SW | 214 10.8 SW | 231 0.00 41 0.00 41.9 63.7
4/21/19 - 0900 57.4 72 48.5 2.0 SW | 225 5.6 SW | 220 0.00 27 0.00 41.9 60.2
4/21/19 - 0800 48.6 92 46.3 1.3 WSW | 258 4.3 WSW | 252 0.00 13 0.00 41.9 53.4
4/21/19 - 0700 43.0 94 41.3 0.4 WSW | 253 2.7 WSW | 238 0.00 1 0.00 41.9 52.2
4/21/19 - 0600 42.6 92 40.4 0.0 NW | 322 1.7 NW | 312 0.00 0 0.00 41.9 52.2
4/21/19 - 0500 45.1 91 42.5 0.2 SSW | 198 2.4 NNW | 335 0.00 0 0.00 43.6 52.2
4/21/19 - 0400 46.8 88 43.5 0.9 NW | 316 3.8 NNE | 31 0.00 0 0.00 45.7 52.2
4/21/19 - 0300 48.6 86 44.6 1.8 W | 274 4.4 WSW | 255 0.00 0 0.00 47.9 52.2
4/21/19 - 0200 50.4 83 45.5 3.8 SW | 221 7.6 SW | 225 0.00 0 0.00 49.6 52.2
4/21/19 - 0100 51.5 81 45.8 5.2 SW | 219 8.8 SW | 221 0.00 0 0.00 50.4 52.2
4/21/19 - 0000 52.1 80 46.1 7.0 SW | 225 11.0 SSW | 195 0.00 0 0.00 51.5 69.9
4/20/19 - 2300 53.0 78 46.5 6.7 SW | 224 10.8 WSW | 239 0.00 0 0.00 52.4 69.9
4/20/19 - 2200 54.1 76 46.8 8.5 SW | 222 14.5 WSW | 256 0.00 0 0.00 52.4 69.9
4/20/19 - 2100 55.2 74 47.2 9.4 SW | 234 16.2 WSW | 242 0.00 0 0.00 52.4 69.9
4/20/19 - 2000 58.6 68 47.9 8.7 WSW | 245 15.8 WSW | 255 0.00 2 0.00 52.4 69.9
4/20/19 - 1900 62.2 61 48.4 10.6 SW | 234 17.5 SW | 219 0.00 15 0.00 52.4 69.9
4/20/19 - 1800 63.9 57 48.5 12.8 SW | 223 20.4 WSW | 256 0.00 29 0.00 52.4 69.9
4/20/19 - 1700 65.4 55 48.8 13.8 WSW | 245 22.7 WSW | 242 0.00 41 0.00 52.4 69.9
4/20/19 - 1600 67.0 53 49.6 12.4 WSW | 241 18.8 WSW | 239 0.00 56 0.00 52.4 69.9
4/20/19 - 1500 67.4 53 50.0 12.9 WSW | 240 20.9 SSW | 213 0.00 63 0.00 52.4 69.9
4/20/19 - 1400 68.6 55 52.0 12.1 SW | 234 18.7 WSW | 251 0.00 70 0.00 52.4 69.9
4/20/19 - 1300 67.4 60 53.0 11.6 WSW | 238 18.8 WNW | 292 0.00 68 0.00 52.4 69.3
4/20/19 - 1200 65.8 63 53.1 13.4 WSW | 239 23.9 WSW | 241 0.00 63 0.00 52.4 66.8
4/20/19 - 1100 62.9 70 52.8 10.1 WSW | 238 20.2 SW | 232 0.00 51 0.00 52.4 65.5
4/20/19 - 1000 56.1 83 51.0 7.8 SW | 236 14.0 WSW | 248 0.00 16 0.00 52.4 58.2
4/20/19 - 0900 53.7 88 50.2 7.7 WSW | 238 14.0 SW | 233 0.00 8 0.00 52.4 54.8
4/20/19 - 0800 53.0 88 49.6 9.7 SW | 235 15.8 WSW | 254 0.00 3 0.00 52.4 54.8
4/20/19 - 0700 53.4 87 49.6 7.2 SW | 234 16.3 SSW | 207 0.00 0 0.00 52.4 54.8
4/20/19 - 0600 53.0 88 49.6 8.7 WSW | 251 19.0 SW | 236 0.00 0 0.00 52.4 54.8
4/20/19 - 0500 52.8 88 49.4 9.8 WSW | 252 16.0 W | 268 0.00 0 0.00 52.4 54.8
4/20/19 - 0400 53.0 88 49.5 13.4 WSW | 244 19.2 SW | 230 0.00 0 0.00 52.4 54.8
4/20/19 - 0300 53.6 88 50.2 10.8 WSW | 244 15.8 SW | 229 0.00 0 0.00 53.3 54.8
4/20/19 - 0200 54.3 88 50.8 9.6 SW | 235 18.0 WSW | 240 0.00 0 0.00 53.5 54.8
4/20/19 - 0100 54.5 87 50.8 10.0 SW | 234 15.7 SW | 232 0.00 0 0.00 54.2 54.8
4/20/19 - 0000 54.4 88 50.8 10.8 SW | 236 17.3 W | 264 0.00 0 0.00 49.7 82.1
4/19/19 - 2300 54.8 86 50.7 10.2 WSW | 240 15.5 SW | 220 0.00 0 0.00 49.7 82.1
4/19/19 - 2200 56.5 83 51.4 8.8 WSW | 237 16.5 SW | 216 0.00 0 0.00 49.7 82.1
4/19/19 - 2100 58.8 76 51.3 10.6 WSW | 247 19.0 WSW | 248 0.00 0 0.00 49.7 82.1
4/19/19 - 2000 60.8 75 52.8 12.3 WSW | 239 20.9 WSW | 240 0.00 2 0.00 49.7 82.1
4/19/19 - 1900 66.1 68 55.1 9.2 WSW | 248 19.4 WSW | 248 0.00 6 0.00 49.7 82.1
4/19/19 - 1800 72.2 56 55.8 9.7 WSW | 239 16.2 SW | 217 0.00 25 0.00 49.7 82.1
4/19/19 - 1700 76.6 51 57.2 9.9 WSW | 245 15.2 WSW | 240 0.00 44 0.00 49.7 82.1
4/19/19 - 1600 79.9 46 57.3 8.9 WSW | 244 14.8 WSW | 244 0.00 57 0.00 49.7 82.1
4/19/19 - 1500 80.1 46 57.4 8.1 SW | 231 13.2 WSW | 250 0.00 56 0.00 49.7 82.1
4/19/19 - 1400 79.2 47 57.3 7.8 SW | 232 12.6 SW | 228 0.00 62 0.00 49.7 80.4
4/19/19 - 1300 77.9 49 57.5 5.0 SSW | 201 9.0 SW | 226 0.00 69 0.00 49.7 79.3
4/19/19 - 1200 75.2 52 56.2 2.9 SSW | 204 7.1 SSW | 193 0.00 51 0.00 49.7 76.8
4/19/19 - 1100 72.3 56 56.0 4.1 SW | 226 8.4 SSW | 212 0.00 52 0.00 49.7 75.2
4/19/19 - 1000 69.0 64 56.2 1.7 NW | 309 5.3 N | 353 0.00 41 0.00 49.7 71.8
4/19/19 - 0900 62.8 74 54.4 1.1 N | 357 4.1 NNE | 19 0.00 28 0.00 49.7 65.7
4/19/19 - 0800 55.3 87 51.4 0.0 SW | 234 1.7 SSW | 196 0.00 10 0.00 49.7 61.0
4/19/19 - 0700 53.9 85 49.6 1.6 W | 269 6.1 SSW | 213 0.00 1 0.00 49.7 61.0
4/19/19 - 0600 51.0 91 48.5 1.7 SW | 236 6.4 SW | 236 0.00 0 0.00 49.7 61.0
4/19/19 - 0500 53.4 87 49.6 2.1 WSW | 256 3.8 WNW | 286 0.00 0 0.00 51.0 61.0
4/19/19 - 0400 53.8 85 49.5 1.5 WSW | 258 4.8 WSW | 247 0.00 0 0.00 52.4 61.0
4/19/19 - 0300 57.4 79 50.8 4.3 SW | 231 7.8 SSW | 213 0.00 0 0.00 55.6 61.0
4/19/19 - 0200 58.2 75 50.4 4.1 WSW | 242 7.1 SW | 226 0.00 0 0.00 57.6 61.0
4/19/19 - 0100 59.7 73 51.0 4.2 SW | 224 9.1 SW | 232 0.00 0 0.00 57.8 61.0
4/19/19 - 0000 58.3 80 52.0 1.0 WNW | 284 4.8 W | 266 0.00 0 0.00 45.3 82.2
4/18/19 - 2300 60.7 76 53.0 1.1 W | 281 3.4 W | 280 0.00 0 0.00 45.3 82.2
4/18/19 - 2200 63.3 72 54.1 2.3 WSW | 251 4.6 WSW | 251 0.00 0 0.00 45.3 82.2
4/18/19 - 2100 67.3 67 56.0 0.8 WNW | 292 3.6 WNW | 292 0.00 0 0.00 45.3 82.2
4/18/19 - 2000 74.4 51 55.3 1.8 WSW | 246 3.8 SSW | 198 0.00 2 0.00 45.3 82.2
4/18/19 - 1900 78.2 44 54.8 2.2 SSE | 150 6.9 SSE | 156 0.00 11 0.00 45.3 82.2
4/18/19 - 1800 79.8 41 54.0 4.6 SE | 143 9.6 SSE | 154 0.00 27 0.00 45.3 82.2
4/18/19 - 1700 80.2 47 58.0 5.4 SE | 130 9.5 SE | 137 0.00 41 0.00 45.3 82.2
4/18/19 - 1600 81.3 46 58.3 4.5 E | 98 10.6 S | 184 0.00 55 0.00 45.3 82.2
4/18/19 - 1500 79.9 44 56.4 4.8 E | 82 11.0 ENE | 68 0.00 63 0.00 45.3 81.1
4/18/19 - 1400 78.3 47 56.5 5.8 ENE | 71 11.6 E | 82 0.00 64 0.00 45.3 79.3
4/18/19 - 1300 76.2 48 55.3 6.7 ENE | 72 13.2 ENE | 72 0.00 66 0.00 45.3 77.3
4/18/19 - 1200 74.2 54 56.4 5.0 E | 95 11.1 ENE | 62 0.00 61 0.00 45.3 75.6
4/18/19 - 1100 71.1 56 54.4 2.1 ESE | 115 6.6 SE | 146 0.00 52 0.00 45.3 72.5
4/18/19 - 1000 66.9 60 52.7 1.5 SE | 129 4.3 SSE | 166 0.00 40 0.00 45.3 69.1
4/18/19 - 0900 60.6 75 52.4 0.3 NE | 35 2.9 ENE | 76 0.00 26 0.00 45.3 64.7
4/18/19 - 0800 51.2 92 49.0 0.4 NW | 317 2.4 NW | 315 0.00 12 0.00 45.3 56.5
4/18/19 - 0700 46.6 93 44.6 0.0 NW | 319 1.7 WNW | 300 0.00 1 0.00 45.3 56.5
4/18/19 - 0600 47.6 90 44.9 0.2 NNW | 343 4.3 NW | 321 0.00 0 0.00 46.8 56.5
4/18/19 - 0500 51.1 86 47.1 0.8 W | 276 3.9 SW | 235 0.00 0 0.00 49.1 56.5
4/18/19 - 0400 51.5 88 47.9 2.1 WSW | 238 4.4 SW | 230 0.00 0 0.00 50.6 56.5
4/18/19 - 0300 53.2 86 49.2 3.2 WSW | 243 6.4 SW | 222 0.00 0 0.00 52.2 56.5
4/18/19 - 0200 53.2 78 46.6 3.0 WSW | 237 5.1 WSW | 242 0.00 0 0.00 52.2 56.5
4/18/19 - 0100 54.7 72 45.8 1.7 WSW | 249 5.3 WSW | 239 0.00 0 0.00 53.3 56.5
4/18/19 - 0000 56.9 65 45.1 3.5 WSW | 252 6.9 SW | 222 0.00 0 0.00 44.9 73.8
4/17/19 - 2300 58.3 61 45.2 4.3 SW | 230 7.3 SW | 221 0.00 0 0.00 44.9 73.8
4/17/19 - 2200 60.3 62 47.2 4.4 WSW | 245 10.3 W | 271 0.00 0 0.00 44.9 73.8
4/17/19 - 2100 61.4 68 50.7 4.5 WSW | 240 10.3 WSW | 245 0.00 0 0.00 44.9 73.8
4/17/19 - 2000 65.1 65 53.0 6.3 WSW | 246 11.5 SW | 223 0.00 2 0.00 44.9 73.8
4/17/19 - 1900 70.5 55 53.5 7.6 WSW | 248 13.2 WSW | 255 0.00 14 0.00 44.9 73.8
4/17/19 - 1800 72.9 53 54.6 7.4 WSW | 249 12.0 SW | 224 0.00 28 0.00 44.9 73.8
4/17/19 - 1700 73.2 47 51.8 7.4 WSW | 241 11.6 WSW | 258 0.00 42 0.00 44.9 73.8
4/17/19 - 1600 73.3 49 53.2 6.8 SW | 229 10.8 SW | 225 0.00 54 0.00 44.9 73.8
4/17/19 - 1500 72.9 51 53.9 4.7 WSW | 243 10.6 SW | 235 0.00 62 0.00 44.9 73.7
4/17/19 - 1400 71.3 55 54.1 4.4 WSW | 255 9.3 S | 191 0.00 66 0.00 44.9 72.4
4/17/19 - 1300 70.2 54 53.0 3.2 SSE | 160 8.1 SW | 217 0.00 65 0.00 44.9 71.5
4/17/19 - 1200 67.7 56 51.3 2.4 SSE | 160 6.4 S | 177 0.00 61 0.00 44.9 69.5
4/17/19 - 1100 64.3 64 52.1 3.6 SSW | 212 7.4 WSW | 244 0.00 51 0.00 44.9 66.7
4/17/19 - 1000 60.9 72 51.8 4.5 SW | 231 7.6 SW | 216 0.00 39 0.00 44.9 63.0
4/17/19 - 0900 56.3 81 50.6 6.0 SW | 234 10.1 WSW | 242 0.00 25 0.00 44.9 58.4
4/17/19 - 0800 52.1 87 48.3 4.3 WSW | 238 7.8 WSW | 251 0.00 12 0.00 44.9 54.7
4/17/19 - 0700 48.6 88 45.3 3.5 SW | 234 5.9 WSW | 240 0.00 1 0.00 44.9 49.7
4/17/19 - 0600 48.5 90 45.7 4.1 SW | 235 7.8 SW | 229 0.00 0 0.00 44.9 49.7
4/17/19 - 0500 48.3 92 46.0 4.0 WSW | 238 8.1 WSW | 237 0.00 0 0.00 44.9 49.7
4/17/19 - 0400 46.5 92 44.4 2.6 WSW | 238 6.1 SW | 230 0.00 0 0.00 44.9 49.7
4/17/19 - 0300 47.5 91 45.0 2.2 WSW | 258 4.4 WSW | 254 0.00 0 0.00 46.7 49.7
4/17/19 - 0200 48.0 90 45.1 0.7 WNW | 297 3.8 SW | 216 0.00 0 0.00 46.8 49.7
4/17/19 - 0100 48.8 88 45.5 1.9 W | 267 3.6 SW | 232 0.00 0 0.00 47.5 49.7
4/17/19 - 0000 49.7 86 45.8 1.9 W | 259 4.4 WSW | 256 0.00 0 0.07 47.3 68.5
4/16/19 - 2300 51.2 84 46.5 0.4 WNW | 298 2.6 WNW | 298 0.00 0 0.07 47.3 68.5
4/16/19 - 2200 54.0 76 46.7 2.8 WSW | 251 5.8 WNW | 292 0.00 0 0.07 47.3 68.5
4/16/19 - 2100 56.2 71 46.8 2.7 WNW | 294 9.1 W | 280 0.00 0 0.07 47.3 68.5
4/16/19 - 2000 58.9 67 48.0 6.0 WSW | 253 12.6 SW | 220 0.00 2 0.07 47.3 68.5
4/16/19 - 1900 63.2 62 50.1 8.0 WSW | 242 13.0 WSW | 254 0.00 14 0.07 47.3 68.5
4/16/19 - 1800 66.2 58 51.0 6.8 WSW | 246 11.5 W | 260 0.00 28 0.07 47.3 68.5
Max 89.9 94 58.3 13.8 - 23.9 - 0.00 70 0.07 63.0 90.9
Avg 63.6 65 49.6 5.0 - 9.7 - 0.00 22 - - -
Min 42.6 14 32.7 0.0 - 1.7 - 0.00 0 0.00 41.9 49.7
Total - - - - - - - 0.00 - - - -
Tip: Bookmark this page for easy future reference